Time;durP1;ratioP1;P1;durP2;ratioP2;P2;SDS_P1;SDS_P2;PMS_P1;PMS_P2;Temp;Humidity;BMP_temperature;BMP_pressure;BME280_temperature;BME280_humidity;BME280_pressure;Samples;Min_cycle;Max_cycle;Signal;HPM_P1;HPM_P2
2021/06/28 00:02:06;;;;;;;13.07;11.15;;;;;;;23.35;61.16;98983.94;5109212;28;20043;-61
2021/06/28 00:04:41;;;;;;;13.52;11.55;;;;;;;23.37;60.92;98989.19;5111091;28;20043;-61
2021/06/28 00:07:07;;;;;;;13.05;11.73;;;;;;;23.34;60.98;98970.53;5110863;28;20035;-61
2021/06/28 00:09:33;;;;;;;13.73;12.10;;;;;;;23.36;61.19;98976.59;5110990;28;20118;-62
2021/06/28 00:11:58;;;;;;;14.85;11.50;;;;;;;23.04;61.10;98930.31;5109335;28;20043;-61
2021/06/28 00:14:24;;;;;;;12.32;11.13;;;;;;;23.28;61.29;98983.19;5110871;28;20047;-61
2021/06/28 00:16:49;;;;;;;13.23;11.63;;;;;;;23.26;61.49;98977.13;5111030;28;20102;-62
2021/06/28 00:19:15;;;;;;;14.85;12.02;;;;;;;23.27;61.55;98988.88;5109872;28;20156;-61
2021/06/28 00:21:40;;;;;;;14.13;10.65;;;;;;;23.29;61.43;98989.50;5109308;28;20072;-62
2021/06/28 00:24:07;;;;;;;14.35;11.45;;;;;;;22.90;61.53;98943.25;5110729;28;20044;-61
2021/06/28 00:26:33;;;;;;;13.98;12.30;;;;;;;23.21;61.61;98991.44;5110457;28;20035;-61
2021/06/28 00:28:59;;;;;;;15.98;12.18;;;;;;;23.19;61.49;98982.63;5110681;28;20548;-61
2021/06/28 00:31:24;;;;;;;14.55;11.63;;;;;;;23.27;61.59;99003.38;5110839;28;20027;-61
2021/06/28 00:33:50;;;;;;;13.23;11.82;;;;;;;23.17;61.54;98983.94;5108813;28;20489;-61
2021/06/28 00:36:15;;;;;;;16.23;11.98;;;;;;;23.18;61.60;98980.16;5110434;28;20035;-61
2021/06/28 00:38:41;;;;;;;13.50;11.90;;;;;;;23.27;61.68;98995.19;5110586;28;20197;-61
2021/06/28 00:41:06;;;;;;;17.23;12.52;;;;;;;23.30;61.71;99002.91;5104936;28;20028;-60
2021/06/28 00:43:32;;;;;;;12.63;11.07;;;;;;;23.25;61.83;99013.69;5088609;28;20032;-61
2021/06/28 00:45:58;;;;;;;13.10;10.85;;;;;;;23.08;61.75;99008.78;5087583;28;20047;-61
2021/06/28 00:48:23;;;;;;;12.70;10.95;;;;;;;23.25;61.86;99043.72;5088235;28;20047;-61
2021/06/28 00:50:52;;;;;;;13.30;11.90;;;;;;;22.86;62.11;98982.97;5086890;28;20028;-62
2021/06/28 00:53:20;;;;;;;13.30;11.50;;;;;;;23.26;62.23;99047.28;5091098;28;20501;-61
2021/06/28 00:55:47;;;;;;;15.23;12.38;;;;;;;23.26;62.19;99037.19;5107624;28;20094;-61
2021/06/28 00:58:13;;;;;;;15.38;11.82;;;;;;;23.25;62.10;99040.13;5107721;28;20043;-61
2021/06/28 01:00:39;;;;;;;13.73;12.15;;;;;;;23.26;62.04;99039.94;5106344;28;20027;-61
2021/06/28 01:03:05;;;;;;;16.38;12.20;;;;;;;23.30;62.15;99037.59;5109924;28;20070;-62
2021/06/28 01:05:33;;;;;;;13.60;12.30;;;;;;;22.98;62.45;98969.44;5109856;28;20082;-61
2021/06/28 01:07:59;;;;;;;13.18;11.88;;;;;;;23.29;62.73;99035.94;5110348;28;20110;-61
2021/06/28 01:10:25;;;;;;;17.13;12.55;;;;;;;23.14;62.53;99017.97;5107854;28;20077;-62
2021/06/28 01:12:51;;;;;;;16.13;11.70;;;;;;;23.29;62.66;99044.13;5109012;28;20039;-62
2021/06/28 01:15:19;;;;;;;17.55;12.55;;;;;;;23.28;62.83;99037.00;5110093;28;20146;-62
2021/06/28 01:17:45;;;;;;;21.48;12.95;;;;;;;23.31;62.80;99034.63;5109964;28;20075;-64
2021/06/28 01:20:10;;;;;;;15.05;12.30;;;;;;;23.33;62.75;99027.03;5110111;28;20036;-62
2021/06/28 01:22:39;;;;;;;15.40;11.95;;;;;;;23.33;62.90;99020.75;5106821;28;20506;-63
2021/06/28 01:25:07;;;;;;;15.20;11.70;;;;;;;23.32;63.11;99019.91;5110542;28;20412;-61
2021/06/28 01:27:33;;;;;;;13.45;12.05;;;;;;;23.32;63.24;99005.44;5110032;28;20047;-61
2021/06/28 01:29:59;;;;;;;13.70;12.30;;;;;;;23.31;63.31;99004.59;5109995;28;20494;-61
2021/06/28 01:32:27;;;;;;;13.15;11.77;;;;;;;23.31;63.38;99004.59;5108177;28;20059;-60
2021/06/28 01:34:53;;;;;;;13.35;11.95;;;;;;;23.22;63.18;98987.63;5109734;28;20039;-61
2021/06/28 01:37:21;;;;;;;15.07;12.27;;;;;;;23.17;63.57;98984.75;5109883;28;20032;-60
2021/06/28 01:39:55;;;;;;;14.05;12.57;;;;;;;23.35;63.73;98992.13;5110220;28;20035;-60
2021/06/28 01:42:28;;;;;;;13.50;11.48;;;;;;;23.33;63.61;98972.41;5108073;28;20081;-61
2021/06/28 01:44:54;;;;;;;16.02;12.00;;;;;;;23.29;63.45;98959.47;5102430;28;20031;-60
2021/06/28 01:47:20;;;;;;;13.63;11.90;;;;;;;22.78;63.62;98867.63;5107553;28;20091;-62
2021/06/28 01:49:46;;;;;;;13.50;12.13;;;;;;;22.91;63.75;98891.19;5107635;28;20194;-61
2021/06/28 01:52:12;;;;;;;13.25;11.73;;;;;;;23.23;63.67;98931.97;5107206;28;20600;-61
2021/06/28 01:54:38;;;;;;;13.60;11.95;;;;;;;23.28;63.31;98942.22;5088918;28;20040;-61
2021/06/28 01:57:04;;;;;;;12.48;11.27;;;;;;;23.34;63.41;98952.22;5091202;28;20128;-61
2021/06/28 01:59:33;;;;;;;13.98;11.35;;;;;;;23.41;63.27;98954.06;5091321;28;20057;-61
2021/06/28 02:02:01;;;;;;;14.00;12.20;;;;;;;23.49;62.82;98960.03;5091719;28;20040;-61
2021/06/28 02:04:27;;;;;;;14.07;11.82;;;;;;;23.54;62.58;98956.59;5092898;28;20036;-61
2021/06/28 02:06:54;;;;;;;13.63;11.30;;;;;;;23.53;62.65;98938.53;5093653;28;20058;-61
2021/06/28 02:09:20;;;;;;;16.73;11.90;;;;;;;23.43;62.23;98895.41;5092910;28;20055;-62
2021/06/28 02:11:47;;;;;;;12.45;11.15;;;;;;;23.52;62.28;98906.84;5092736;28;20068;-61
2021/06/28 02:14:12;;;;;;;12.23;11.00;;;;;;;23.53;62.25;98903.03;5093920;28;20077;-61
2021/06/28 02:16:42;;;;;;;14.02;11.38;;;;;;;23.60;62.44;98903.75;5093013;28;20048;-61
2021/06/28 02:19:08;;;;;;;13.65;11.07;;;;;;;23.70;61.96;98888.72;5093057;28;20772;-62
2021/06/28 02:21:33;;;;;;;13.65;11.60;;;;;;;23.84;61.58;98878.41;5092638;28;20119;-61
2021/06/28 02:23:59;;;;;;;14.57;11.00;;;;;;;24.00;60.79;98871.44;5093193;28;20448;-61
2021/06/28 02:26:24;;;;;;;12.52;11.30;;;;;;;24.15;60.50;98871.84;5093279;28;20147;-61
2021/06/28 02:28:50;;;;;;;14.18;11.02;;;;;;;24.37;60.15;98877.53;5092463;28;20122;-62
2021/06/28 02:31:19;;;;;;;12.98;11.63;;;;;;;24.56;59.46;98873.84;5092553;28;20032;-62
2021/06/28 02:33:45;;;;;;;13.63;12.23;;;;;;;24.52;58.94;98843.41;5092520;28;20028;-60
2021/06/28 02:36:11;;;;;;;16.52;12.15;;;;;;;24.90;58.04;98863.13;5093783;28;20109;-62
2021/06/28 02:38:38;;;;;;;17.73;13.25;;;;;;;25.05;57.20;98848.91;5092462;28;20503;-61
2021/06/28 02:41:05;;;;;;;15.10;12.57;;;;;;;25.34;56.77;98868.09;5092028;28;20028;-61
2021/06/28 02:43:52;;;;;;;17.35;13.27;;;;;;;25.53;56.03;98873.41;5062353;28;20056;-61
2021/06/28 02:46:18;;;;;;;15.48;12.68;;;;;;;25.68;55.91;98856.41;5094808;28;20963;-61
2021/06/28 02:48:44;;;;;;;16.08;12.70;;;;;;;25.80;55.26;98860.72;5090059;28;20163;-60
2021/06/28 02:51:13;;;;;;;14.68;11.80;;;;;;;25.84;54.99;98871.19;5090106;28;20036;-61
2021/06/28 02:53:38;;;;;;;16.00;12.82;;;;;;;25.76;54.95;98862.31;5090367;28;20123;-60
2021/06/28 02:56:14;;;;;;;16.92;12.63;;;;;;;25.74;55.52;98858.13;5091156;28;20119;-60
2021/06/28 02:58:40;;;;;;;14.85;12.10;;;;;;;25.74;55.49;98845.28;5091817;28;20169;-61
2021/06/28 03:01:06;;;;;;;17.45;11.98;;;;;;;25.85;54.79;98835.31;5110470;28;20119;-61
2021/06/28 03:03:42;;;;;;;14.48;11.98;;;;;;;26.16;54.32;98840.44;5086408;27;20389;-59
2021/06/28 03:06:34;;;;;;;14.13;11.35;;;;;;;26.57;53.32;98826.53;5087050;27;20734;-61
2021/06/28 03:09:23;;;;;;;13.50;11.52;;;;;;;27.04;51.83;98833.44;5127982;27;20169;-60
2021/06/28 03:11:59;;;;;;;;;;;;;;;27.43;51.32;98843.44;5007993;28;20942;-60
2021/06/28 03:14:36;;;;;;;;;;;;;;;27.83;50.78;98844.97;5067635;28;20387;-60
2021/06/28 03:17:13;;;;;;;12.48;10.57;;;;;;;28.30;49.20;98837.91;5107902;27;20391;-61
2021/06/28 03:19:49;;;;;;;11.23;10.15;;;;;;;28.66;48.28;98829.00;5066873;28;20763;-61
2021/06/28 03:22:26;;;;;;;16.45;11.25;;;;;;;29.06;47.01;98835.81;5067683;28;20383;-61
2021/06/28 03:25:03;;;;;;;13.05;10.40;;;;;;;29.60;45.96;98824.66;5067013;28;20391;-60
2021/06/28 03:27:40;;;;;;;11.57;10.35;;;;;;;29.75;44.83;98777.75;5067240;28;20790;-62
2021/06/28 03:30:18;;;;;;;11.80;10.68;;;;;;;30.39;43.51;98818.81;5066615;27;20790;-60
2021/06/28 03:32:55;;;;;;;13.15;10.77;;;;;;;30.76;42.73;98823.13;5067001;28;20790;-60
2021/06/28 03:45:55;;;;;;;11.07;10.13;;;;;;;31.67;40.66;98778.91;5080968;27;1288190;-62
2021/06/28 03:48:31;;;;;;;12.77;11.48;;;;;;;31.57;40.40;98786.16;5064902;28;20841;-60
2021/06/28 03:51:07;;;;;;;12.55;11.30;;;;;;;31.21;40.95;98783.69;5064423;28;20397;-60
2021/06/28 03:53:44;;;;;;;12.57;11.38;;;;;;;30.99;41.19;98793.16;5085247;27;20382;-61
2021/06/28 03:56:21;;;;;;;13.60;12.32;;;;;;;30.67;41.75;98786.16;5084749;27;20946;-60
2021/06/28 03:58:57;;;;;;;13.15;11.80;;;;;;;30.13;42.47;98769.16;5085201;27;20389;-61
2021/06/28 04:01:32;;;;;;;17.52;13.10;;;;;;;29.58;43.74;98761.47;5081201;27;1298150;-61
2021/06/28 04:04:09;;;;;;;13.60;12.30;;;;;;;28.99;45.32;98763.63;5085717;28;20393;-61
2021/06/28 04:06:46;;;;;;;13.90;12.27;;;;;;;28.71;46.30;98762.13;5128110;27;20134;-60
2021/06/28 04:09:25;;;;;;;13.15;11.57;;;;;;;28.55;46.77;98744.72;5107435;27;20224;-61
2021/06/28 04:12:03;;;;;;;12.32;10.98;;;;;;;28.22;47.15;98715.41;5107850;27;20175;-60
2021/06/28 04:14:42;;;;;;;12.77;11.57;;;;;;;28.25;47.55;98735.22;5127994;27;20181;-61
2021/06/28 04:17:21;;;;;;;13.38;12.07;;;;;;;28.48;46.82;98733.94;5007385;28;20383;-62
2021/06/28 04:19:58;;;;;;;14.77;12.05;;;;;;;29.42;44.79;98729.50;5067314;27;20096;-61
2021/06/28 04:22:36;;;;;;;18.40;13.15;;;;;;;30.77;41.83;98730.84;5087239;27;20385;-60
2021/06/28 04:25:16;;;;;;;16.30;11.77;;;;;;;32.09;39.33;98724.84;5066548;27;20528;-61
2021/06/28 04:27:53;;;;;;;13.68;12.27;;;;;;;33.54;36.40;98722.88;5066999;28;20395;-61
2021/06/28 04:30:30;;;;;;;13.02;11.93;;;;;;;34.30;34.55;98732.84;5067709;28;20394;-61
2021/06/28 04:33:06;;;;;;;12.93;11.48;;;;;;;34.76;33.29;98681.06;5067064;28;20391;-60
2021/06/28 04:35:42;;;;;;;14.00;11.15;;;;;;;36.01;31.75;98683.50;5067190;27;20387;-60
2021/06/28 04:38:34;;;;;;;12.48;11.05;;;;;;;37.07;30.04;98709.69;5067060;28;20391;-63
2021/06/28 04:41:25;;;;;;;16.55;12.13;;;;;;;36.95;29.05;98701.94;5128301;27;20387;-62
2021/06/28 04:44:15;;;;;;;12.15;10.73;;;;;;;36.86;29.72;98701.94;5086754;27;20936;-62
2021/06/28 04:46:58;;;;;;;11.95;10.88;;;;;;;37.60;29.03;98704.84;5065446;28;20406;-61
2021/06/28 04:49:38;;;;;;;10.82;9.77;;;;;;;38.63;27.26;98710.69;5085591;27;20753;-62
2021/06/28 04:52:31;;;;;;;12.05;10.98;;;;;;;39.12;26.41;98712.13;5064944;28;20387;-62
2021/06/28 04:55:21;;;;;;;13.27;12.07;;;;;;;39.20;26.04;98714.03;5084651;27;20382;-62
2021/06/28 05:08:21;;;;;;;13.02;11.75;;;;;;;43.56;21.42;98739.09;5104589;27;20391;-61
2021/06/28 05:11:09;;;;;;;13.13;11.95;;;;;;;42.22;22.23;98729.72;5125751;27;20375;-61
2021/06/28 05:13:59;;;;;;;12.25;11.20;;;;;;;41.16;23.48;98734.50;5084946;27;20780;-63
2021/06/28 05:16:39;;;;;;;12.00;10.77;;;;;;;41.95;22.57;98763.97;5064012;28;20402;-63
2021/06/28 05:19:21;;;;;;;12.45;11.15;;;;;;;42.89;21.35;98740.13;5083788;27;1291761;-62
2021/06/28 05:22:03;;;;;;;14.98;12.60;;;;;;;42.88;20.80;98654.06;5085844;28;20396;-63
2021/06/28 05:24:52;;;;;;;12.63;11.32;;;;;;;44.03;19.56;98727.84;5067069;28;20391;-62
2021/06/28 05:27:58;;;;;;;13.13;11.65;;;;;;;45.13;18.68;98745.22;5056927;27;20437;-62
2021/06/28 05:30:46;;;;;;;13.05;11.93;;;;;;;45.88;17.64;98696.38;5065878;28;20394;-62
2021/06/28 05:33:36;;;;;;;13.55;12.45;;;;;;;46.59;17.27;98722.81;5065798;28;20395;-62
2021/06/28 05:36:16;;;;;;;12.82;11.82;;;;;;;47.21;16.38;98731.59;5084515;27;20397;-62
2021/06/28 05:49:22;;;;;;;12.90;11.90;;;;;;;47.23;16.54;98718.63;6048974;22;1296203;-63
2021/06/28 06:02:27;;;;;;;13.75;12.65;;;;;;;43.89;19.09;98725.59;5086758;27;20393;-63
2021/06/28 06:05:07;;;;;;;15.25;13.57;;;;;;;42.44;21.00;98737.53;5067535;28;20391;-64
2021/06/28 06:08:00;;;;;;;15.38;14.00;;;;;;;41.47;21.64;98721.72;5047118;28;20396;-64
2021/06/28 06:10:46;;;;;;;18.75;13.70;;;;;;;41.18;22.22;98735.78;5067154;28;20913;-63
2021/06/28 06:13:38;;;;;;;19.25;14.95;;;;;;;41.75;21.51;98721.69;5067187;28;20394;-62
2021/06/28 06:16:18;;;;;;;15.32;14.00;;;;;;;42.75;20.54;98723.72;5067401;28;20778;-63
2021/06/28 06:18:58;;;;;;;14.82;13.45;;;;;;;44.65;18.44;98709.91;5067237;28;20394;-65
2021/06/28 06:21:47;;;;;;;15.38;14.02;;;;;;;47.17;16.12;98725.91;5066967;28;20383;-64
2021/06/28 06:24:39;;;;;;;15.25;13.70;;;;;;;49.10;14.44;98732.38;5008099;28;20951;-65
2021/06/28 06:37:39;;;;;;;13.77;12.73;;;;;;;48.11;15.44;98733.78;5128607;27;20953;-64
2021/06/28 06:50:40;;;;;;;13.45;12.07;;;;;;;53.80;10.78;98729.84;5126366;27;20402;-64
2021/06/28 06:53:23;;;;;;;13.55;12.48;;;;;;;54.20;10.30;98733.75;5085223;27;20389;-64
2021/06/28 06:56:12;;;;;;;14.93;13.18;;;;;;;54.71;9.81;98727.47;5063477;28;20387;-64
2021/06/28 07:09:17;;;;;;;16.23;14.55;;;;;;;57.14;8.25;98727.97;5134722;27;20142;-63
2021/06/28 07:11:53;;;;;;;17.52;15.60;;;;;;;57.05;7.81;98727.94;5065121;28;20786;-64
2021/06/28 07:14:42;;;;;;;16.38;15.13;;;;;;;57.47;7.35;98741.09;5065742;28;20390;-66
2021/06/28 07:17:31;;;;;;;18.35;16.52;;;;;;;57.34;7.71;98729.69;5085833;28;20412;-64
2021/06/28 07:20:18;;;;;;;16.13;14.82;;;;;;;57.32;7.05;98724.44;5065943;28;20386;-63
2021/06/28 07:23:10;;;;;;;16.70;15.18;;;;;;;57.49;7.01;98733.59;5127481;27;20176;-62
2021/06/28 07:25:47;;;;;;;17.38;15.80;;;;;;;57.16;7.62;98711.06;5084515;27;1286536;-62
2021/06/28 07:28:36;;;;;;;17.92;16.45;;;;;;;57.31;7.50;98733.50;5067072;28;20390;-65
2021/06/28 07:41:41;;;;;;;16.25;15.02;;;;;;;58.58;7.37;98733.97;5087531;27;20126;-65
2021/06/28 07:44:24;;;;;;;19.60;17.67;;;;;;;57.75;7.42;98726.78;5067003;28;20394;-64
2021/06/28 07:47:00;;;;;;;19.67;17.77;;;;;;;57.73;7.32;98740.88;5067126;28;20394;-63
2021/06/28 07:49:48;;;;;;;18.50;16.73;;;;;;;57.52;7.58;98731.81;5087546;27;20393;-65
2021/06/28 07:52:29;;;;;;;19.33;17.52;;;;;;;57.78;7.63;98732.41;5067829;28;20414;-64
2021/06/28 07:55:13;;;;;;;18.98;16.98;;;;;;;56.07;8.21;98755.25;5087823;27;20397;-63
2021/06/28 07:57:49;;;;;;;18.10;16.40;;;;;;;53.62;10.19;98746.63;5084750;27;1286714;-62
2021/06/28 08:00:25;;;;;;;18.67;16.73;;;;;;;50.97;11.75;98749.19;5067867;28;20421;-62
2021/06/28 08:03:05;;;;;;;17.08;15.57;;;;;;;48.78;13.52;98736.97;5128652;27;20117;-62
2021/06/28 08:05:45;;;;;;;16.65;14.95;;;;;;;49.75;13.15;98719.81;5087129;27;20385;-63
2021/06/28 08:08:33;;;;;;;16.27;14.60;;;;;;;50.41;12.48;98738.00;5066949;27;20383;-63
2021/06/28 08:21:36;;;;;;;16.83;15.40;;;;;;;47.82;15.13;98730.94;5108006;27;20391;-62
2021/06/28 08:24:19;;;;;;;18.52;16.85;;;;;;;46.19;16.36;98724.53;5067500;28;20387;-62
2021/06/28 08:27:08;;;;;;;19.30;17.70;;;;;;;44.10;18.28;98673.56;5067438;28;20387;-63
2021/06/28 08:29:49;;;;;;;18.60;16.90;;;;;;;43.29;20.01;98712.81;5087426;27;20916;-64
2021/06/28 08:32:35;;;;;;;24.08;19.40;;;;;;;41.92;21.66;98704.84;5116775;27;19931;-63
2021/06/28 08:35:14;;;;;;;19.85;17.90;;;;;;;40.61;23.15;98698.38;5067665;28;20398;-63
2021/06/28 08:37:51;;;;;;;20.52;18.63;;;;;;;39.74;24.81;98696.34;5087484;27;20144;-61
2021/06/28 08:40:31;;;;;;;19.98;18.13;;;;;;;38.97;24.96;98680.81;5067429;28;20391;-63
2021/06/28 08:43:10;;;;;;;20.63;18.52;;;;;;;38.46;26.52;98678.88;5067540;27;20134;-62
2021/06/28 08:45:47;;;;;;;21.60;19.08;;;;;;;38.04;26.95;98662.00;5066986;28;20390;-61
2021/06/28 08:48:25;;;;;;;19.60;17.60;;;;;;;38.07;27.01;98669.69;5128189;27;20544;-63
2021/06/28 08:51:03;;;;;;;19.65;18.02;;;;;;;37.94;27.36;98651.97;5128326;27;20124;-61
2021/06/28 08:53:41;;;;;;;20.35;18.45;;;;;;;37.73;28.46;98655.53;5128758;27;20184;-62
2021/06/28 08:56:20;;;;;;;19.08;17.23;;;;;;;37.66;28.25;98646.03;5127828;27;20157;-61
2021/06/28 08:58:59;;;;;;;19.63;17.65;;;;;;;37.54;29.06;98624.41;5128006;27;20169;-61
2021/06/28 09:01:37;;;;;;;21.70;18.65;;;;;;;37.67;28.53;98630.94;5128024;27;20124;-62
2021/06/28 09:04:14;;;;;;;20.20;18.40;;;;;;;37.90;28.33;98639.84;5107847;27;20170;-61
2021/06/28 09:06:52;;;;;;;19.38;17.38;;;;;;;38.18;27.92;98643.00;5087097;28;20129;-63
2021/06/28 09:09:43;;;;;;;20.88;18.45;;;;;;;38.37;28.14;98629.72;5087400;27;20389;-61
2021/06/28 09:12:20;;;;;;;18.63;16.92;;;;;;;38.54;27.38;98618.47;5067268;28;20391;-62
2021/06/28 09:15:00;;;;;;;18.80;16.90;;;;;;;38.54;27.64;98614.84;5067767;27;20391;-64
2021/06/28 09:17:39;;;;;;;18.77;16.88;;;;;;;38.45;27.70;98610.13;5067039;28;20633;-63
2021/06/28 09:30:49;;;;;;;17.50;15.77;;;;;;;38.63;26.35;98590.44;5128327;27;21004;-63
2021/06/28 09:33:29;;;;;;;18.30;16.60;;;;;;;38.18;27.49;98578.75;5067036;28;20387;-63
2021/06/28 09:36:22;;;;;;;22.20;20.02;;;;;;;36.26;31.57;98586.44;5083458;27;1283753;-62
2021/06/28 09:39:14;;;;;;;19.80;17.67;;;;;;;36.14;31.48;98607.38;5007627;28;20394;-62
2021/06/28 09:41:58;;;;;;;20.70;18.77;;;;;;;35.53;32.60;98616.34;5067402;28;20387;-62
2021/06/28 09:44:56;;;;;;;19.95;17.95;;;;;;;34.94;33.45;98628.34;5067225;27;20386;-62
2021/06/28 09:47:36;;;;;;;24.38;18.60;;;;;;;34.30;35.50;98604.28;5007953;28;20391;-63
2021/06/28 09:50:21;;;;;;;21.98;18.08;;;;;;;34.00;37.62;98628.78;5067161;28;20102;-62
2021/06/28 09:52:59;;;;;;;18.60;16.88;;;;;;;33.49;36.57;98612.81;4613119;27;15050648;-62
2021/06/28 09:55:55;;;;;;;20.60;18.40;;;;;;;32.88;37.96;98611.91;5068579;27;20432;-63
2021/06/28 09:58:48;;;;;;;20.90;18.80;;;;;;;32.16;39.41;98586.88;5048855;27;20410;-63
2021/06/28 10:01:37;;;;;;;18.90;16.90;;;;;;;30.57;47.53;98700.53;5087114;27;20744;-62
2021/06/28 10:07:45;;;;;;;15.65;9.90;;;;;;;25.62;64.46;98867.28;5088207;27;20740;-62
2021/06/28 10:10:37;;;;;;;8.20;5.28;;;;;;;24.04;69.87;98827.03;5128190;27;20135;-61
2021/06/28 10:13:27;;;;;;;5.57;4.20;;;;;;;23.30;72.42;98830.88;5087552;27;20740;-62
2021/06/28 10:16:25;;;;;;;7.97;4.93;;;;;;;22.91;73.85;98860.34;5148987;27;20470;-63
2021/06/28 10:29:43;;;;;;;;;;;;;;;22.44;74.39;98992.56;5130164;27;20392;-62
2021/06/28 10:32:50;;;;;;;;;;;;;;;22.35;74.86;99002.94;5131107;27;20439;-63
2021/06/28 10:35:47;;;;;;;;;;;;;;;22.25;75.68;98969.03;5129760;27;20140;-61
2021/06/28 10:38:53;;;;;;;;;;;;;;;22.22;75.64;98905.72;5191197;27;20458;-64
2021/06/28 10:41:50;;;;;;;;;;;;;;;22.19;75.84;98878.91;5116363;27;20552;-62
2021/06/28 10:44:45;;;;;;;;;;;;;;;22.15;75.74;98872.19;4613580;27;15051898;-63
2021/06/28 10:47:22;;;;;;;;;;;;;;;22.10;76.50;98861.13;5149503;27;20127;-62
2021/06/28 10:49:58;;;;;;;;;;;;;;;22.07;76.78;98812.53;5108295;27;20384;-62
2021/06/28 10:52:52;;;;;;;;;;;;;;;22.05;77.79;98801.03;5087742;27;20402;-63
2021/06/28 10:55:38;;;;;;;0.80;0.80;;;;;;;22.18;78.68;98792.69;5087655;28;19935;-62
2021/06/28 10:58:27;;;;;;;1.40;1.20;;;;;;;22.18;79.58;98780.97;5087917;28;20375;-63
2021/06/28 11:01:15;;;;;;;1.10;1.00;;;;;;;22.19;80.24;98772.56;5087182;28;20055;-63
2021/06/28 11:04:30;;;;;;;1.23;1.13;;;;;;;22.15;80.57;98760.44;5085890;28;20474;-64
2021/06/28 11:07:15;;;;;;;1.00;0.90;;;;;;;22.23;81.30;98767.50;5082447;28;20063;-64
2021/06/28 11:10:00;;;;;;;1.30;1.20;;;;;;;22.31;81.25;98752.72;5087574;28;20536;-63
2021/06/28 11:12:46;;;;;;;1.92;1.73;;;;;;;22.36;81.34;98731.06;5087545;28;20059;-64
2021/06/28 11:15:31;;;;;;;1.95;1.85;;;;;;;22.31;81.39;98733.63;5086045;28;20105;-63
2021/06/28 11:18:31;;;;;;;1.70;1.52;;;;;;;22.32;81.18;98743.50;5087485;28;20078;-62
2021/06/28 11:21:39;;;;;;;3.00;2.28;;;;;;;22.38;81.71;98734.38;5086943;28;20233;-63
2021/06/28 11:24:10;;;;;;;1.73;1.63;;;;;;;22.41;82.16;98712.09;5085488;28;20113;-63
2021/06/28 11:26:37;;;;;;;2.08;1.88;;;;;;;22.39;82.03;98710.69;5087257;28;20169;-62
2021/06/28 11:29:52;;;;;;;;;;;;;;;22.51;81.27;98747.91;5190797;27;20401;-61
2021/06/28 11:33:07;;;;;;;;;;;;;;;22.41;81.10;98755.75;5088202;27;20398;-64
2021/06/28 11:35:49;;;;;;;4.40;3.88;;;;;;;22.45;81.58;98754.25;5086332;28;20018;-62
2021/06/28 11:38:33;;;;;;;5.43;4.35;;;;;;;22.50;81.86;98734.47;5087386;28;20291;-63
2021/06/28 11:41:08;;;;;;;4.90;4.40;;;;;;;22.54;81.65;98727.50;5027399;27;2902812;-63
2021/06/28 11:43:59;;;;;;;;;;;;;;;22.53;81.59;98728.56;5088777;27;20395;-63
2021/06/28 11:47:07;;;;;;;;;;;;;;;22.67;81.59;98733.88;5127122;27;20511;-61
2021/06/28 11:50:19;;;;;;;;;;;;;;;22.79;81.57;98732.84;5191097;27;20474;-62
2021/06/28 11:53:11;;;;;;;;;;;;;;;22.99;81.48;98726.28;5108252;27;20862;-62
2021/06/28 11:56:18;;;;;;;;;;;;;;;23.17;81.20;98728.09;5118284;27;20146;-62
2021/06/28 11:59:11;;;;;;;;;;;;;;;23.35;80.46;98732.69;5087718;27;20406;-61
2021/06/28 12:02:02;;;;;;;;;;;;;;;23.55;80.12;98734.25;5088414;27;20894;-63
2021/06/28 12:04:37;;;;;;;9.20;6.40;;;;;;;23.83;79.08;98710.84;4612221;27;15076636;-62
2021/06/28 12:07:50;;;;;;;;;;;;;;;24.13;79.04;98711.81;5110027;27;20825;-61
2021/06/28 12:11:00;;;;;;;;;;;;;;;24.49;79.40;98705.19;5147213;27;20837;-63
2021/06/28 12:14:01;;;;;;;5.28;4.78;;;;;;;25.22;78.49;98722.97;5116833;27;20492;-62
2021/06/28 12:16:59;;;;;;;;;;;;;;;25.26;78.53;98669.34;5128366;27;20206;-62
2021/06/28 12:19:58;;;;;;;;;;;;;;;25.79;76.79;98705.53;5092723;27;20438;-63
2021/06/28 12:22:51;;;;;;;6.95;5.85;;;;;;;26.03;74.48;98707.22;5048522;28;20402;-62
2021/06/28 12:25:51;;;;;;;4.97;4.30;;;;;;;25.88;75.54;98680.44;5087982;27;20410;-63
2021/06/28 12:28:28;;;;;;;;;;;;;;;25.88;76.59;98754.44;5067488;27;20383;-61
2021/06/28 12:31:16;;;;;;;;;;;;;;;25.74;76.96;98792.34;5067777;28;20395;-64
2021/06/28 12:33:55;;;;;;;;;;;;;;;25.44;76.77;98796.22;5108264;27;20383;-63
2021/06/28 12:36:35;;;;;;;;;;;;;;;25.14;77.56;98778.16;5007815;28;20383;-64
2021/06/28 12:39:12;;;;;;;5.32;4.82;;;;;;;25.02;77.82;98762.59;5066887;28;20788;-63
2021/06/28 12:42:14;;;;;;;;;;;;;;;24.79;78.78;98785.44;5067337;28;20390;-62
2021/06/28 12:44:51;;;;;;;4.80;3.95;;;;;;;24.85;78.93;98767.22;5067554;27;20395;-61
2021/06/28 12:47:45;;;;;;;;;;;;;;;24.76;79.03;98764.84;5128428;27;20545;-62
2021/06/28 12:50:28;;;;;;;3.65;2.55;;;;;;;24.90;78.78;98748.94;5067519;28;20779;-63
2021/06/28 12:53:12;;;;;;;;;;;;;;;24.87;78.87;98737.69;5067662;28;20393;-62
2021/06/28 12:56:07;;;;;;;2.55;2.25;;;;;;;25.09;78.37;98729.59;5087712;27;20902;-62
2021/06/28 12:58:59;;;;;;;2.88;2.55;;;;;;;25.10;77.95;98689.34;5088092;27;20924;-62
2021/06/28 13:01:59;;;;;;;;;;;;;;;25.30;78.15;98697.88;5088585;27;20430;-63
2021/06/28 13:05:06;;;;;;;;;;;;;;;25.49;77.75;98705.91;5108461;27;20441;-63
2021/06/28 13:08:10;;;;;;;;;;;;;;;25.68;77.18;98722.09;5191237;27;20458;-61
2021/06/28 13:11:14;;;;;;;2.28;2.08;;;;;;;25.94;76.36;98735.09;5107531;27;20366;-62
2021/06/28 13:14:07;;;;;;;;;;;;;;;25.86;76.85;98721.81;5088408;27;20486;-62
2021/06/28 13:17:27;;;;;;;2.00;1.90;;;;;;;25.86;76.23;98710.84;5088212;27;20399;-62
2021/06/28 13:20:19;;;;;;;2.03;1.88;;;;;;;25.63;76.78;98696.25;5089555;27;20498;-63
2021/06/28 13:23:22;;;;;;;1.85;1.75;;;;;;;25.48;77.23;98698.75;5190921;27;20414;-63
2021/06/28 13:26:15;;;;;;;1.67;1.58;;;;;;;25.32;77.08;98681.22;5087223;27;20416;-64
2021/06/28 13:29:10;;;;;;;1.88;1.77;;;;;;;25.04;77.40;98656.38;5117116;27;20408;-61
2021/06/28 13:32:18;;;;;;;;;;;;;;;24.93;77.52;98666.34;5088666;27;20539;-62
2021/06/28 13:35:25;;;;;;;;;;;;;;;24.84;77.70;98656.88;5191206;27;20543;-63
2021/06/28 13:38:19;;;;;;;1.50;1.40;;;;;;;24.96;77.43;98645.00;5068145;27;20404;-64
2021/06/28 13:41:11;;;;;;;;;;;;;;;24.95;77.87;98635.97;5129917;27;20349;-61
2021/06/28 13:44:10;;;;;;;1.95;1.60;;;;;;;25.13;77.09;98604.78;5148807;27;20680;-61
2021/06/28 13:46:46;;;;;;;1.52;1.40;;;;;;;25.42;76.88;98628.50;4613069;27;15049205;-62
2021/06/28 13:49:39;;;;;;;;;;;;;;;25.58;76.80;98637.81;5088539;27;21040;-63
2021/06/28 13:52:47;;;;;;;;;;;;;;;25.79;75.96;98627.94;5109609;27;20413;-62
2021/06/28 13:55:52;;;;;;;2.05;1.95;;;;;;;26.06;74.88;98621.72;5118881;27;20357;-63
2021/06/28 13:58:50;;;;;;;2.30;2.10;;;;;;;26.17;74.66;98609.81;5111970;27;20438;-62
2021/06/28 14:01:54;;;;;;;2.00;1.90;;;;;;;26.03;74.84;98600.28;5116497;27;20486;-62
2021/06/28 14:05:08;;;;;;;;;;;;;;;25.99;75.84;98635.63;5110225;27;20461;-63
2021/06/28 14:07:58;;;;;;;1.80;1.70;;;;;;;26.04;75.57;98613.75;5089452;27;20398;-61
2021/06/28 14:11:04;;;;;;;2.10;1.90;;;;;;;26.18;75.12;98622.44;5116939;27;20414;-63
2021/06/28 14:14:13;;;;;;;1.77;1.67;;;;;;;26.19;75.36;98642.47;5109852;27;20742;-62
2021/06/28 14:17:08;;;;;;;2.25;1.73;;;;;;;26.17;75.46;98639.16;5191179;27;20441;-63
2021/06/28 14:20:04;;;;;;;1.70;1.60;;;;;;;26.16;75.56;98641.06;5191339;27;20414;-62
2021/06/28 14:22:40;;;;;;;2.00;1.90;;;;;;;26.15;75.23;98647.59;4610554;27;15049110;-62
2021/06/28 14:25:32;;;;;;;1.77;1.67;;;;;;;26.15;75.28;98636.63;5108452;27;20408;-62
2021/06/28 14:28:29;;;;;;;1.95;1.85;;;;;;;26.12;75.00;98628.06;5111556;27;20198;-62
2021/06/28 14:31:23;;;;;;;2.53;2.33;;;;;;;26.05;74.99;98611.84;5087707;27;20418;-62
2021/06/28 14:34:25;;;;;;;2.88;1.88;;;;;;;26.22;75.07;98626.31;5066823;28;20389;-62
2021/06/28 14:37:15;;;;;;;2.92;2.60;;;;;;;26.30;75.02;98644.25;5118772;27;20426;-62
2021/06/28 14:40:16;;;;;;;2.38;2.00;;;;;;;26.15;74.73;98619.34;5117045;27;20156;-62